createdAt,value
2019-03-13T00:00:21.222Z,96196.77
2019-03-13T00:02:52.173Z,96214.26
2019-03-13T00:05:23.321Z,96226.13
2019-03-13T00:07:54.295Z,96234.47
2019-03-13T00:10:27.255Z,96244.33
2019-03-13T00:12:58.318Z,96247.23
2019-03-13T00:15:29.266Z,96262.70
2019-03-13T00:18:00.002Z,96269.95
2019-03-13T00:20:30.929Z,96278.66
2019-03-13T00:23:42.926Z,96300.40
2019-03-13T00:26:22.730Z,96282.35
2019-03-13T00:28:54.417Z,96295.81
2019-03-13T00:31:25.461Z,96323.01
2019-03-13T00:33:56.819Z,96305.45
2019-03-13T00:36:27.986Z,96377.06
2019-03-13T00:38:59.685Z,96367.19
2019-03-13T00:41:30.381Z,96376.34
2019-03-13T00:44:01.932Z,96376.77
2019-03-13T00:46:32.940Z,96378.59
2019-03-13T00:49:04.202Z,96380.61
2019-03-13T00:51:47.323Z,96375.69
2019-03-13T00:54:18.392Z,96375.33
2019-03-13T00:56:50.108Z,96384.45
2019-03-13T00:59:21.231Z,96389.70
2019-03-13T01:02:03.610Z,96403.59
2019-03-13T01:04:47.994Z,96414.32
2019-03-13T01:07:23.153Z,96414.34
2019-03-13T01:09:54.256Z,96440.41
2019-03-13T01:12:25.235Z,96441.97
2019-03-13T01:14:56.542Z,96456.98
2019-03-13T01:17:27.783Z,96458.18
2019-03-13T01:19:58.848Z,96456.73
2019-03-13T01:22:29.794Z,96476.88
2019-03-13T01:25:00.879Z,96484.23
2019-03-13T01:27:32.858Z,96486.48
2019-03-13T01:30:03.535Z,96489.51
2019-03-13T01:32:50.562Z,96476.82
2019-03-13T01:35:46.402Z,96495.66
2019-03-13T01:38:17.524Z,96509.63
2019-03-13T01:40:48.447Z,96514.05
2019-03-13T01:43:19.169Z,96552.78
2019-03-13T01:45:50.222Z,96551.90
2019-03-13T01:48:22.291Z,96561.13
2019-03-13T01:51:01.462Z,96545.68
2019-03-13T01:53:32.047Z,96551.38
2019-03-13T01:56:02.694Z,96545.06
2019-03-13T01:58:34.339Z,96557.91
2019-03-13T02:01:06.015Z,96574.68
2019-03-13T03:02:16.034Z,96705.80
2019-03-13T03:04:47.065Z,96701.42
2019-03-13T03:07:18.101Z,96747.81
2019-03-13T03:09:48.761Z,96723.11
2019-03-13T03:12:19.503Z,96738.81
2019-03-13T03:15:17.186Z,96745.07
2019-03-13T03:17:48.718Z,96718.34
2019-03-13T03:20:20.679Z,96748.06
2019-03-13T03:22:52.020Z,96755.38
2019-03-13T03:25:23.308Z,96794.00
2019-03-13T03:27:54.398Z,96773.09
2019-03-13T03:30:25.963Z,96768.55
2019-03-13T03:33:00.827Z,96778.90
2019-03-13T03:35:38.682Z,96774.70
2019-03-13T03:38:09.054Z,96784.75
2019-03-13T03:40:40.875Z,96773.19
2019-03-13T03:43:12.914Z,96782.03
2019-03-13T03:45:44.673Z,96780.25
2019-03-13T03:48:17.822Z,96792.41
2019-03-13T03:50:48.640Z,96789.52
2019-03-13T03:53:19.558Z,96797.13
2019-03-13T03:55:50.804Z,96802.13
2019-03-13T03:58:21.851Z,96793.48
2019-03-13T04:00:53.559Z,96797.13
2019-03-13T04:03:25.187Z,96791.30
2019-03-13T04:05:56.029Z,96785.92
2019-03-13T04:08:27.679Z,96788.22
2019-03-13T04:11:00.031Z,96787.30
2019-03-13T04:13:31.427Z,96785.84
2019-03-13T04:16:02.944Z,96797.48
2019-03-13T04:18:34.513Z,96780.98
2019-03-13T04:21:05.809Z,96795.97
2019-03-13T04:23:36.869Z,96798.88
2019-03-13T04:26:07.920Z,96792.29
2019-03-13T04:28:39.415Z,96799.09
2019-03-13T04:31:10.793Z,96795.95
2019-03-13T04:33:41.503Z,96806.36
2019-03-13T04:36:13.055Z,96797.27
2019-03-13T04:38:44.694Z,96805.73
2019-03-13T04:41:16.139Z,96793.67
2019-03-13T04:43:47.343Z,96801.09
2019-03-13T04:46:18.671Z,96800.95
2019-03-13T04:48:49.955Z,96805.84
2019-03-13T04:51:21.271Z,96811.39
2019-03-13T04:53:52.655Z,96808.14
2019-03-13T04:56:23.678Z,96810.53
2019-03-13T04:58:54.720Z,96815.91
2019-03-13T05:01:26.421Z,96821.14
2019-03-13T05:03:57.888Z,96829.47
2019-03-13T05:06:28.625Z,96827.67
2019-03-13T05:09:12.291Z,96816.64
2019-03-13T05:11:43.654Z,96831.79
2019-03-13T05:14:20.223Z,96830.63
2019-03-13T05:16:51.535Z,96829.77
2019-03-13T05:19:23.414Z,96825.30
2019-03-13T05:21:54.393Z,96833.30
2019-03-13T05:24:25.471Z,96834.42
2019-03-13T05:26:57.185Z,96832.58
2019-03-13T05:29:29.025Z,96825.86
2019-03-13T05:32:01.516Z,96828.06
2019-03-13T05:34:37.057Z,96830.15
2019-03-13T05:37:14.812Z,96828.61
2019-03-13T05:39:47.374Z,96830.16
2019-03-13T05:42:18.659Z,96833.58
2019-03-13T05:44:53.851Z,96827.28
2019-03-13T05:47:27.520Z,96840.20
2019-03-13T05:50:04.359Z,96836.16
2019-03-13T05:52:35.318Z,96836.81
2019-03-13T05:55:05.925Z,96829.90
2019-03-13T05:57:37.254Z,96827.86
2019-03-13T06:00:09.888Z,96839.72
2019-03-13T06:02:40.795Z,96835.80
2019-03-13T06:05:12.698Z,96834.98
2019-03-13T06:07:43.962Z,96854.33
2019-03-13T06:10:14.286Z,96855.06
2019-03-13T06:12:45.487Z,96865.55
2019-03-13T06:15:16.306Z,96873.25
2019-03-13T06:17:47.688Z,96870.13
2019-03-13T06:20:18.386Z,96869.80
2019-03-13T06:22:48.991Z,96871.63
2019-03-13T06:25:20.764Z,96864.12
2019-03-13T06:27:52.758Z,96862.14
2019-03-13T06:30:24.076Z,96863.22
2019-03-13T06:32:55.057Z,96865.97
2019-03-13T06:35:26.235Z,96865.48
2019-03-13T06:37:57.301Z,96867.08
2019-03-13T06:40:28.708Z,96866.82
2019-03-13T06:43:00.247Z,96863.16
2019-03-13T06:45:31.916Z,96872.85
2019-03-13T06:48:03.606Z,96869.10
2019-03-13T06:50:34.251Z,96862.29
2019-03-13T06:53:04.921Z,96863.25
2019-03-13T06:55:36.741Z,96855.35
2019-03-13T06:58:07.454Z,96867.06
2019-03-13T07:01:09.988Z,96873.09
2019-03-13T07:04:03.523Z,96878.55
2019-03-13T07:06:59.360Z,96874.81
2019-03-13T07:09:40.855Z,96884.00
2019-03-13T07:12:28.566Z,96878.31
2019-03-13T07:15:21.419Z,96874.56
2019-03-13T07:18:09.794Z,96859.25
2019-03-13T07:21:02.755Z,96869.50
2019-03-13T07:24:04.764Z,96865.19
2019-03-13T07:26:58.990Z,96874.38
2019-03-13T07:29:47.746Z,96866.73
2019-03-13T07:32:34.536Z,96872.25
2019-03-13T07:35:21.357Z,96871.61
2019-03-13T07:38:00.204Z,96869.11
2019-03-13T07:40:50.090Z,96866.44
2019-03-13T07:43:36.621Z,96864.48
2019-03-13T07:46:22.190Z,96869.69
2019-03-13T07:49:13.163Z,96864.48
2019-03-13T07:52:18.338Z,96860.53
2019-03-13T07:55:07.357Z,96861.35
2019-03-13T07:58:06.566Z,96853.98
2019-03-13T08:01:02.544Z,96863.16
2019-03-13T08:03:48.411Z,96870.66
2019-03-13T08:06:36.526Z,96872.22
2019-03-13T08:09:19.553Z,96871.25
2019-03-13T08:12:21.918Z,96865.41
2019-03-13T08:15:23.956Z,96863.97
2019-03-13T08:18:25.936Z,96864.24
2019-03-13T08:21:22.297Z,96867.52
2019-03-13T08:24:12.003Z,96881.40
2019-03-13T08:27:01.386Z,96869.59
2019-03-13T08:29:43.109Z,96868.52
2019-03-13T08:32:32.708Z,96873.52
2019-03-13T08:35:17.163Z,96875.98
2019-03-13T08:37:59.672Z,96877.34
2019-03-13T08:40:38.594Z,96872.64
2019-03-13T08:43:40.347Z,96869.97
2019-03-13T08:46:24.085Z,96880.41
2019-03-13T08:49:23.790Z,96881.17
2019-03-13T08:52:12.087Z,96880.99
2019-03-13T08:54:58.799Z,96879.50
2019-03-13T08:57:47.426Z,96878.80
2019-03-13T09:00:37.170Z,96880.23
2019-03-13T09:03:42.953Z,96867.81
2019-03-13T09:06:33.449Z,96872.48
2019-03-13T09:09:22.359Z,96854.21
2019-03-13T09:12:30.352Z,96851.67
2019-03-13T09:15:13.071Z,96834.17
2019-03-13T09:18:12.337Z,96837.01
2019-03-13T09:21:02.708Z,96819.50
2019-03-13T09:23:58.753Z,96835.71
2019-03-13T09:26:41.353Z,96838.34
2019-03-13T09:29:49.245Z,96831.00
2019-03-13T09:32:29.732Z,96833.84
2019-03-13T09:35:28.561Z,96824.72
2019-03-13T09:38:20.353Z,96837.17
2019-03-13T09:41:19.944Z,96826.31
2019-03-13T09:44:08.818Z,96805.36
2019-03-13T09:46:48.748Z,96812.97
2019-03-13T09:49:26.770Z,96811.25
2019-03-13T09:52:33.063Z,96807.34
2019-03-13T09:55:22.003Z,96799.91
2019-03-13T09:58:15.413Z,96802.01
2019-03-13T10:01:01.643Z,96811.44
2019-03-13T10:03:49.276Z,96810.13
2019-03-13T10:06:47.976Z,96825.58
2019-03-13T10:09:35.015Z,96846.77
2019-03-13T10:12:30.003Z,96836.81
2019-03-13T10:15:05.665Z,96821.60
2019-03-13T10:17:54.418Z,96826.80
2019-03-13T10:20:44.498Z,96814.06
2019-03-13T10:23:40.827Z,96810.94
2019-03-13T10:26:40.863Z,96813.73
2019-03-13T10:29:30.788Z,96813.75
2019-03-13T10:32:31.480Z,96786.29
2019-03-13T10:35:16.380Z,96774.05
2019-03-13T10:38:13.708Z,96799.58
2019-03-13T10:40:59.364Z,96781.20
2019-03-13T10:43:56.124Z,96782.80
2019-03-13T10:46:43.013Z,96782.73
2019-03-13T10:49:36.501Z,96779.36
2019-03-13T10:52:29.170Z,96761.25
2019-03-13T10:55:10.206Z,96767.55
2019-03-13T10:58:15.700Z,96765.08
2019-03-13T11:01:01.315Z,96763.39
2019-03-13T11:03:53.717Z,96761.34
2019-03-13T11:06:36.654Z,96761.36
2019-03-13T11:09:30.103Z,96742.12
2019-03-13T11:12:25.701Z,96755.45
2019-03-13T11:15:34.546Z,96742.14
2019-03-13T11:18:11.821Z,96734.63
2019-03-13T11:21:09.838Z,96732.00
2019-03-13T11:24:00.782Z,96728.09
2019-03-13T11:27:09.633Z,96735.03
2019-03-13T11:29:49.163Z,96720.88
2019-03-13T11:32:41.926Z,96730.48
2019-03-13T11:35:47.084Z,96732.45
2019-03-13T11:38:46.385Z,96718.27
2019-03-13T11:41:35.227Z,96715.04
2019-03-13T11:44:33.103Z,96708.61
2019-03-13T11:47:26.304Z,96707.83
2019-03-13T11:50:15.394Z,96721.42
2019-03-13T11:53:01.523Z,96709.59
2019-03-13T11:56:01.561Z,96711.80
2019-03-13T11:58:40.918Z,96698.84
2019-03-13T12:01:45.659Z,96703.66
2019-03-13T12:04:19.055Z,96675.05
2019-03-13T12:07:17.919Z,96682.80
2019-03-13T12:10:17.437Z,96686.38
2019-03-13T12:13:02.633Z,96687.47
2019-03-13T12:15:58.709Z,96690.16
2019-03-13T12:18:54.948Z,96704.98
2019-03-13T12:21:35.930Z,96724.19
2019-03-13T12:24:42.272Z,96721.88
2019-03-13T12:27:33.271Z,96717.68
2019-03-13T12:30:45.094Z,96725.20
2019-03-13T12:33:44.824Z,96725.97
2019-03-13T12:36:41.900Z,96730.12
2019-03-13T12:39:20.549Z,96733.80
2019-03-13T12:42:01.266Z,96735.54
2019-03-13T12:44:58.844Z,96724.64
2019-03-13T12:47:40.163Z,96689.55
2019-03-13T12:50:34.355Z,96699.68
2019-03-13T12:53:33.509Z,96692.43
2019-03-13T12:56:22.239Z,96686.48
2019-03-13T12:59:13.554Z,96698.33
2019-03-13T13:02:30.764Z,96695.16
2019-03-13T13:05:12.454Z,96683.54
2019-03-13T13:07:58.686Z,96684.92
2019-03-13T13:10:48.125Z,96688.34
2019-03-13T13:14:20.476Z,96676.94
2019-03-13T13:17:14.617Z,96667.42
2019-03-13T13:19:47.756Z,96665.16
2019-03-13T13:22:18.759Z,96665.02
2019-03-13T13:24:50.059Z,96656.38
2019-03-13T13:27:21.123Z,96655.55
2019-03-13T13:29:53.361Z,96650.11
2019-03-13T13:32:23.974Z,96656.38
2019-03-13T13:34:55.569Z,96667.48
2019-03-13T13:37:27.994Z,96657.19
2019-03-13T13:39:58.865Z,96660.22
2019-03-13T13:42:31.869Z,96638.94
2019-03-13T13:45:03.593Z,96626.05
2019-03-13T13:47:34.986Z,96623.53
2019-03-13T13:50:07.002Z,96620.89
2019-03-13T13:52:38.455Z,96622.94
2019-03-13T13:55:09.983Z,96608.63
2019-03-13T13:57:41.764Z,96629.48
2019-03-13T14:00:13.733Z,96626.75
2019-03-13T14:02:44.728Z,96620.91
2019-03-13T14:05:16.650Z,96642.06
2019-03-13T14:07:49.196Z,96647.84
2019-03-13T14:10:20.879Z,96686.91
2019-03-13T14:12:51.958Z,96694.22
2019-03-13T14:15:23.254Z,96673.45
2019-03-13T14:17:54.722Z,96671.97
2019-03-13T14:20:25.842Z,96669.42
2019-03-13T14:22:56.525Z,96672.88
2019-03-13T14:25:27.213Z,96670.27
2019-03-13T14:27:58.310Z,96677.27
2019-03-13T14:30:29.448Z,96671.51
2019-03-13T14:33:00.855Z,96680.62
2019-03-13T14:35:34.037Z,96679.90
2019-03-13T14:38:10.653Z,96693.63
2019-03-13T14:40:46.788Z,96691.34
2019-03-13T14:43:23.553Z,96685.92
2019-03-13T14:45:57.887Z,96686.39
2019-03-13T14:48:32.354Z,96674.98
2019-03-13T14:51:03.325Z,96675.23
2019-03-13T14:53:34.311Z,96676.59
2019-03-13T14:56:05.296Z,96677.52
2019-03-13T14:58:40.901Z,96678.63
2019-03-13T15:01:12.515Z,96674.33
2019-03-13T15:03:46.264Z,96676.95
2019-03-13T15:06:17.582Z,96665.65
2019-03-13T15:08:49.331Z,96667.94
2019-03-13T15:11:46.954Z,96686.84
2019-03-13T15:14:17.642Z,96681.64
2019-03-13T15:17:21.369Z,96702.44
2019-03-13T15:19:52.786Z,96691.80
2019-03-13T15:22:23.503Z,96696.20
2019-03-13T15:25:01.437Z,96702.13
2019-03-13T15:27:32.357Z,96706.55
2019-03-13T15:30:03.204Z,96712.22
2019-03-13T15:32:39.787Z,96730.37
2019-03-13T15:35:11.321Z,96726.88
2019-03-13T15:37:42.630Z,96736.22
2019-03-13T15:40:16.258Z,96740.55
2019-03-13T15:42:47.243Z,96736.19
2019-03-13T15:45:27.437Z,96732.79
2019-03-13T15:47:58.081Z,96737.67
2019-03-13T15:50:53.725Z,96726.95
2019-03-13T15:53:24.787Z,96726.77
2019-03-13T15:55:55.976Z,96713.41
2019-03-13T15:58:34.412Z,96713.73
2019-03-13T16:01:10.078Z,96724.70
2019-03-13T16:03:41.475Z,96721.63
2019-03-13T16:06:13.242Z,96724.03
2019-03-13T16:08:54.673Z,96732.86
2019-03-13T16:11:26.098Z,96722.08
2019-03-13T16:13:57.823Z,96715.13
2019-03-13T16:16:56.593Z,96715.42
2019-03-13T16:20:07.242Z,96710.38
2019-03-13T16:22:59.385Z,96704.62
2019-03-13T16:26:38.453Z,96702.91
2019-03-13T16:30:24.068Z,96700.88
2019-03-13T16:33:18.998Z,96707.35
2019-03-13T16:36:12.478Z,96704.61
2019-03-13T16:39:23.973Z,96710.43
2019-03-13T16:42:21.064Z,96704.31
2019-03-13T16:45:21.422Z,96706.03
2019-03-13T16:48:11.605Z,96709.25
2019-03-13T16:50:59.142Z,96701.95
2019-03-13T16:53:51.199Z,96699.00
2019-03-13T16:56:28.677Z,96688.89
2019-03-13T16:59:02.308Z,96684.45
2019-03-13T17:01:33.300Z,96687.28
2019-03-13T17:04:04.350Z,96673.61
2019-03-13T17:06:36.125Z,96673.31
2019-03-13T17:09:11.087Z,96693.62
2019-03-13T17:12:01.311Z,96689.55
2019-03-13T17:14:38.486Z,96693.65
2019-03-13T17:17:13.832Z,96688.52
2019-03-13T17:19:47.515Z,96681.12
2019-03-13T17:22:22.997Z,96683.72
2019-03-13T17:25:10.121Z,96685.67
2019-03-13T17:27:56.703Z,96680.77
2019-03-13T17:30:29.514Z,96688.64
2019-03-13T17:33:01.262Z,96689.42
2019-03-13T17:35:33.593Z,96701.39
2019-03-13T17:38:06.187Z,96711.95
2019-03-13T17:40:39.362Z,96712.25
2019-03-13T17:43:09.687Z,96711.27
2019-03-13T17:45:40.939Z,96707.31
2019-03-13T17:48:12.197Z,96703.13
2019-03-13T17:50:42.573Z,96682.81
2019-03-13T17:53:13.475Z,96677.31
2019-03-13T17:56:03.768Z,96658.67
2019-03-13T17:58:34.798Z,96676.21
2019-03-13T18:01:05.674Z,96681.50
2019-03-13T18:03:36.941Z,96687.49
2019-03-13T18:06:14.468Z,96674.62
2019-03-13T18:08:46.176Z,96677.98
2019-03-13T18:11:35.605Z,96672.03
2019-03-13T18:14:07.187Z,96697.73
2019-03-13T18:16:37.789Z,96700.87
2019-03-13T18:19:09.835Z,96712.52
2019-03-13T18:21:41.509Z,96718.44
2019-03-13T18:24:12.193Z,96715.89
2019-03-13T18:26:43.905Z,96721.38
2019-03-13T18:29:15.272Z,96721.66
2019-03-13T18:31:56.793Z,96724.22
2019-03-13T18:34:28.073Z,96715.31
2019-03-13T18:37:01.361Z,96712.58
2019-03-13T18:39:31.992Z,96704.49
2019-03-13T18:42:03.271Z,96709.52
2019-03-13T18:44:57.008Z,96715.06
2019-03-13T18:47:27.948Z,96722.52
2019-03-13T18:50:00.546Z,96720.75
2019-03-13T18:52:31.968Z,96720.78
2019-03-13T18:55:03.214Z,96731.84
2019-03-13T18:57:34.469Z,96731.33
2019-03-13T19:00:06.248Z,96729.06
2019-03-13T19:02:37.811Z,96723.81
2019-03-13T19:05:10.759Z,96722.67
2019-03-13T19:07:41.325Z,96722.73
2019-03-13T19:10:13.464Z,96722.16
2019-03-13T19:12:44.558Z,96712.53
2019-03-13T19:15:19.657Z,96721.10
2019-03-13T19:17:51.218Z,96730.07
2019-03-13T19:20:23.058Z,96725.95
2019-03-13T19:22:54.147Z,96725.51
2019-03-13T19:25:28.347Z,96728.48
2019-03-13T19:28:01.605Z,96737.14
2019-03-13T19:30:41.103Z,96736.97
2019-03-13T19:33:25.629Z,96741.23
2019-03-13T19:36:09.144Z,96728.30
2019-03-13T19:38:50.415Z,96734.94
2019-03-13T19:41:28.146Z,96734.34
2019-03-13T19:44:19.198Z,96748.80
2019-03-13T19:46:53.760Z,96751.59
2019-03-13T19:49:30.134Z,96742.79
2019-03-13T19:52:09.892Z,96744.22
2019-03-13T19:54:45.189Z,96742.60
2019-03-13T19:57:28.806Z,96736.86
2019-03-13T19:59:59.870Z,96728.12
2019-03-13T20:02:33.877Z,96733.47
2019-03-13T20:05:17.202Z,96725.48
2019-03-13T20:07:54.470Z,96731.87
2019-03-13T20:10:28.676Z,96723.58
2019-03-13T20:13:04.639Z,96722.20
2019-03-13T20:15:40.988Z,96723.59
2019-03-13T20:18:19.344Z,96725.29
2019-03-13T20:20:56.277Z,96736.32
2019-03-13T20:23:38.427Z,96722.51
2019-03-13T20:26:12.599Z,96727.70
2019-03-13T20:28:52.028Z,96730.73
2019-03-13T20:31:26.040Z,96731.04
2019-03-13T20:34:06.516Z,96731.83
2019-03-13T20:36:41.237Z,96740.23
2019-03-13T20:39:12.572Z,96736.41
2019-03-13T20:41:47.316Z,96747.63
2019-03-13T20:44:23.318Z,96746.26
2019-03-13T20:46:57.842Z,96745.44
2019-03-13T20:49:35.758Z,96746.39
2019-03-13T20:52:07.308Z,96751.94
2019-03-13T20:54:52.231Z,96759.89
2019-03-13T20:57:27.032Z,96749.53
2019-03-13T21:00:05.241Z,96749.75
2019-03-13T21:02:39.692Z,96776.08
2019-03-13T21:05:11.249Z,96764.78
2019-03-13T21:07:49.502Z,96774.94
2019-03-13T21:10:33.986Z,96778.83
2019-03-13T21:13:07.566Z,96779.74
2019-03-13T21:15:43.901Z,96767.13
2019-03-13T21:18:15.874Z,96775.34
2019-03-13T21:20:46.953Z,96776.95
2019-03-13T21:23:18.269Z,96776.72
2019-03-13T21:25:51.396Z,96779.05
2019-03-13T21:28:22.788Z,96780.80
2019-03-13T21:30:53.450Z,96779.09
2019-03-13T21:33:26.321Z,96774.99
2019-03-13T21:35:57.304Z,96787.03
2019-03-13T21:38:40.373Z,96784.37
2019-03-13T21:41:11.963Z,96778.32
2019-03-13T21:43:43.599Z,96776.59
2019-03-13T21:46:24.895Z,96781.14
2019-03-13T21:48:56.961Z,96783.92
2019-03-13T21:51:35.596Z,96785.20
2019-03-13T21:54:06.313Z,96788.06
2019-03-13T21:56:46.541Z,96795.31
2019-03-13T21:59:21.876Z,96797.94
2019-03-13T22:01:53.462Z,96808.19
2019-03-13T22:04:25.559Z,96787.55
2019-03-13T22:07:02.446Z,96808.43
2019-03-13T22:09:38.523Z,96799.37
2019-03-13T22:12:14.405Z,96797.52
2019-03-13T22:14:50.499Z,96801.88
2019-03-13T22:17:23.713Z,96794.70
2019-03-13T22:19:56.769Z,96803.73
2019-03-13T22:22:28.337Z,96806.53
2019-03-13T22:25:00.025Z,96799.55
2019-03-13T22:27:31.089Z,96806.69
2019-03-13T22:30:02.046Z,96813.42
2019-03-13T22:32:35.544Z,96821.54
2019-03-13T22:35:06.687Z,96824.03
2019-03-13T22:37:37.996Z,96827.48
2019-03-13T22:40:09.503Z,96833.41
2019-03-13T22:42:42.248Z,96834.48
2019-03-13T22:45:13.743Z,96830.61
2019-03-13T22:47:59.299Z,96839.20
2019-03-13T22:50:30.842Z,96831.20
2019-03-13T22:53:02.209Z,96842.84
2019-03-13T22:55:32.990Z,96849.61
2019-03-13T22:58:04.979Z,96853.25
2019-03-13T23:01:07.331Z,96866.69
2019-03-13T23:03:40.525Z,96865.72
2019-03-13T23:06:11.228Z,96869.16
2019-03-13T23:08:43.256Z,96866.69
2019-03-13T23:11:14.615Z,96872.20
2019-03-13T23:13:46.001Z,96879.11
2019-03-13T23:16:16.990Z,96879.43
2019-03-13T23:18:48.444Z,96875.48
2019-03-13T23:21:20.031Z,96867.50
2019-03-13T23:23:53.357Z,96873.50
2019-03-13T23:26:25.382Z,96872.36
2019-03-13T23:28:56.373Z,96869.86
2019-03-13T23:31:27.439Z,96871.59
2019-03-13T23:33:58.799Z,96867.50
2019-03-13T23:36:29.821Z,96862.34
2019-03-13T23:39:00.462Z,96864.61
2019-03-13T23:41:31.903Z,96857.62
2019-03-13T23:44:03.424Z,96866.77
2019-03-13T23:46:34.405Z,96864.00
2019-03-13T23:49:07.076Z,96855.19
2019-03-13T23:51:38.018Z,96846.09
2019-03-13T23:54:09.073Z,96854.57
2019-03-13T23:56:40.588Z,96862.95
2019-03-13T23:59:13.359Z,96862.06
